Lemvig, Denmark
Current Conditions -  °F | °C
As of 7:50 PM on Monday 20 Oct 2014 (Local Time) from EKKA Reporting Station
Few Clouds Few Clouds  
Wind Chill: 52°   Ceiling: Unl
Heat Index: 52°   Visibility: 6mi
Dew Point: 46°   Wind: 7mph
Humidity: 82%   Direction: 230°SW
Pressure: 29.71"   Gusts: NA
Location:  56.55°N, 8.31°E
Report Text: EKKA 201750Z AUTO 23006KT 9999NDV FEW087/// 11/08 Q1006
Loading
Personal Weather Stations






























Interactive Weather Map
Tropical Storm Tracking
New forecast layout! Learn more

10-Day Weather Forecast

Advertisements
Track Severe Weather on mobile